| time (UTC) | temp F | wind direction | speed knots | gust knots | rain 1hr in | rain 24hr in | rain mn in | humidity % | barometer mb |
| 20260510091514 | 55 | 301 | 3.5 | 7.8 | 0.00 | 0.71 | 0.02 | 91 | 1017.8 |
| 20260510090048 | 54 | 301 | 2.6 | 6.1 | 0.00 | 0.71 | 0.02 | 93 | 1017.8 |
| 20260510084534 | 53 | 301 | 1.7 | 5.2 | 0.00 | 0.71 | 0.02 | 96 | 1017.7 |
| 20260510083015 | 52 | 301 | 0.9 | 6.1 | 0.00 | 0.71 | 0.02 | 98 | 1017.8 |
| 20260510081602 | 52 | 301 | 1.7 | 5.2 | 0.00 | 0.71 | 0.02 | 99 | 1017.6 |
| 20260510081507 | 52 | 301 | 1.7 | 5.2 | 0.00 | 0.71 | 0.02 | 99 | 1017.7 |
| 20260510080054 | 51 | 301 | 0.0 | 2.6 | 0.00 | 0.71 | 0.02 | 99 | 1017.5 |
| 20260510074535 | 51 | 301 | 0.0 | 5.2 | 0.00 | 0.71 | 0.02 | 99 | 1017.6 |
| 20260510073021 | 50 | 301 | 1.7 | 5.2 | 0.00 | 0.71 | 0.02 | 99 | 1017.4 |
| 20260510071559 | 49 | 301 | 2.6 | 7.8 | 0.00 | 0.71 | 0.02 | 99 | 1017.2 |
| 20260510070050 | 49 | 301 | 4.3 | 8.7 | 0.00 | 0.71 | 0.02 | 99 | 1017.2 |
| 20260510064531 | 49 | 301 | 0.9 | 8.7 | 0.00 | 0.71 | 0.02 | 99 | 1016.9 |
| 20260510063011 | 48 | 301 | 1.7 | 5.2 | 0.00 | 0.71 | 0.02 | 99 | 1016.8 |
| 20260510061551 | 48 | 301 | 0.0 | 6.1 | 0.01 | 0.71 | 0.02 | 99 | 1016.9 |
| 20260510060043 | 47 | 301 | 1.7 | 5.2 | 0.01 | 0.71 | 0.02 | 99 | 1016.7 |
| 20260510054516 | 47 | 301 | 0.9 | 5.2 | 0.01 | 0.71 | 0.02 | 99 | 1016.5 |
| 20260510053021 | 47 | 301 | 1.7 | 5.2 | 0.01 | 0.71 | 0.02 | 99 | 1016.5 |
| 20260510051603 | 47 | 301 | 0.0 | 3.5 | 0.00 | 0.70 | 0.01 | 99 | 1016.5 |
| 20260510051506 | 47 | 301 | 0.9 | 3.5 | 0.00 | 0.70 | 0.01 | 99 | 1016.6 |
| 20260510050055 | 47 | 301 | 0.0 | 4.3 | 0.00 | 0.70 | 0.01 | 99 | 1016.4 |
| 20260510044543 | 47 | 301 | 2.6 | 6.1 | 0.00 | 0.70 | 0.01 | 99 | 1016.3 |
| 20260510043039 | 47 | 301 | 0.9 | 4.3 | 0.00 | 0.70 | 0.01 | 99 | 1016.4 |
| 20260510041528 | 47 | 301 | 1.7 | 6.1 | 0.00 | 0.70 | 0.01 | 99 | 1016.6 |
| 20260510040025 | 47 | 301 | 1.7 | 7.8 | 0.00 | 0.70 | 0.01 | 99 | 1016.5 |
| 20260510034524 | 47 | 301 | 1.7 | 6.1 | 0.00 | 0.70 | 0.01 | 99 | 1016.6 |
| 20260510033003 | 47 | 301 | 1.7 | 6.1 | 0.00 | 0.70 | 0.01 | 99 | 1016.5 |
| 20260510031558 | 47 | 301 | 1.7 | 5.2 | 0.00 | 0.70 | 0.01 | 99 | 1016.6 |
| 20260510030052 | 47 | 301 | 2.6 | 6.1 | 0.00 | 0.70 | 0.01 | 99 | 1016.6 |
| 20260510024547 | 47 | 301 | 2.6 | 6.1 | 0.00 | 0.70 | 0.01 | 99 | 1016.8 |
| 20260510023040 | 47 | 301 | 2.6 | 8.7 | 0.00 | 0.70 | 0.01 | 99 | 1016.8 |
| 20260510021534 | 47 | 301 | 3.5 | 7.8 | 0.00 | 0.70 | 0.01 | 99 | 1016.9 |
| 20260510020018 | 47 | 301 | 3.5 | 10.4 | 0.00 | 0.70 | 0.01 | 99 | 1017.0 |
| 20260510014520 | 47 | 301 | 3.5 | 8.7 | 0.00 | 0.70 | 0.01 | 99 | 1016.9 |
| 20260510013053 | 47 | 301 | 1.7 | 5.2 | 0.00 | 0.70 | 0.01 | 99 | 1017.1 |
| 20260510011545 | 47 | 301 | 1.7 | 6.1 | 0.00 | 0.70 | 0.01 | 99 | 1017.1 |
| 20260510010038 | 47 | 301 | 2.6 | 7.8 | 0.00 | 0.70 | 0.01 | 99 | 1017.0 |
| 20260510004524 | 47 | 301 | 1.7 | 4.3 | 0.00 | 0.70 | 0.01 | 99 | 1017.0 |
| 20260510003016 | 47 | 301 | 0.9 | 2.6 | 0.01 | 0.70 | 0.01 | 99 | 1017.3 |
| 20260510001508 | 47 | 301 | 0.9 | 3.5 | 0.01 | 0.70 | 0.01 | 99 | 1017.3 |
| 20260510000057 | 47 | 301 | 1.7 | 3.5 | 0.01 | 0.70 | 0.01 | 99 | 1017.5 |
| 20260509234559 | 47 | 301 | 0.9 | 2.6 | 0.01 | 0.70 | 0.01 | 99 | 1017.5 |
| 20260509233037 | 46 | 301 | 0.0 | 4.3 | 0.00 | 0.69 | 0.00 | 99 | 1017.8 |
| 20260509231518 | 46 | 301 | 0.0 | 3.5 | 0.00 | 0.69 | 0.00 | 99 | 1018.0 |
| 20260509230012 | 46 | 301 | 0.9 | 2.6 | 0.00 | 0.69 | 0.00 | 99 | 1017.9 |
| 20260509224517 | 46 | 301 | 0.9 | 3.5 | 0.00 | 0.69 | 0.00 | 99 | 1018.2 |
| 20260509223103 | 46 | 301 | 0.0 | 1.7 | 0.00 | 0.69 | 0.00 | 99 | 1018.4 |
| 20260509221553 | 46 | 301 | 0.0 | 1.7 | 0.00 | 0.69 | 0.00 | 99 | 1018.2 |
| 20260509220029 | 46 | 301 | 0.0 | 0.9 | 0.00 | 0.69 | 0.69 | 99 | 1018.0 |
| 20260509214511 | 47 | 301 | 0.0 | 3.5 | 0.00 | 0.69 | 0.69 | 99 | 1018.1 |
| 20260509213003 | 47 | 301 | 0.0 | 2.6 | 0.00 | 0.69 | 0.69 | 99 | 1018.1 |
| 20260509211555 | 48 | 301 | 1.7 | 3.5 | 0.00 | 0.69 | 0.69 | 99 | 1017.9 |
| 20260509210057 | 48 | 301 | 0.0 | 3.5 | 0.00 | 0.69 | 0.69 | 99 | 1018.2 |
| 20260509204541 | 47 | 301 | 0.0 | 3.5 | 0.00 | 0.69 | 0.69 | 99 | 1017.9 |
| 20260509203036 | 47 | 301 | 0.9 | 2.6 | 0.00 | 0.69 | 0.69 | 99 | 1017.6 |
| 20260509201515 | 47 | 301 | 0.0 | 0.9 | 0.00 | 0.69 | 0.69 | 99 | 1017.5 |
| 20260509200007 | 47 | 301 | 0.0 | 2.6 | 0.00 | 0.69 | 0.69 | 98 | 1017.2 |
| 20260509194557 | 47 | 301 | 0.9 | 4.3 | 0.00 | 0.69 | 0.69 | 98 | 1016.8 |
| 20260509193050 | 47 | 301 | 0.9 | 5.2 | 0.00 | 0.69 | 0.69 | 98 | 1016.3 |
| 20260509191545 | 47 | 301 | 1.7 | 5.2 | 0.00 | 0.69 | 0.69 | 98 | 1015.9 |
| 20260509190035 | 48 | 301 | 0.9 | 4.3 | 0.00 | 0.69 | 0.69 | 98 | 1015.8 |
| 20260509184539 | 48 | 301 | 0.9 | 6.1 | 0.00 | 0.69 | 0.69 | 98 | 1015.7 |
| 20260509183011 | 48 | 301 | 0.9 | 2.6 | 0.00 | 0.69 | 0.69 | 98 | 1015.8 |
| 20260509181503 | 48 | 301 | 0.9 | 4.3 | 0.00 | 0.69 | 0.69 | 98 | 1015.8 |
| 20260509180113 | 48 | 301 | 0.0 | 4.3 | 0.00 | 0.69 | 0.69 | 98 | 1015.6 |
| 20260509174549 | 48 | 301 | 2.6 | 8.7 | 0.00 | 0.69 | 0.69 | 98 | 1015.3 |
| 20260509173050 | 48 | 301 | 3.5 | 8.7 | 0.01 | 0.69 | 0.69 | 98 | 1014.7 |
| 20260509171549 | 48 | 301 | 3.5 | 8.7 | 0.02 | 0.69 | 0.69 | 98 | 1014.7 |
| 20260509170028 | 48 | 301 | 0.9 | 5.2 | 0.07 | 0.69 | 0.69 | 98 | 1014.9 |
| 20260509164503 | 48 | 301 | 0.9 | 6.1 | 0.15 | 0.68 | 0.69 | 98 | 1015.4 |
| 20260509163055 | 48 | 301 | 1.7 | 7.0 | 0.25 | 0.68 | 0.68 | 98 | 1015.6 |
| 20260509161600 | 49 | 301 | 0.0 | 3.5 | 0.35 | 0.67 | 0.67 | 98 | 1016.3 |
| 20260509160035 | 49 | 301 | 0.9 | 4.3 | 0.42 | 0.62 | 0.62 | 97 | 1016.8 |
| 20260509154523 | 49 | 301 | 0.9 | 3.5 | 0.42 | 0.53 | 0.54 | 97 | 1017.3 |
| 20260509153017 | 50 | 301 | 0.9 | 5.2 | 0.32 | 0.42 | 0.42 | 97 | 1017.6 |
| 20260509151502 | 50 | 301 | 2.6 | 7.0 | 0.21 | 0.31 | 0.31 | 97 | 1017.8 |
| 20260509150053 | 50 | 301 | 1.7 | 6.1 | 0.11 | 0.21 | 0.21 | 97 | 1017.4 |
| 20260509144544 | 50 | 301 | 0.9 | 2.6 | 0.03 | 0.12 | 0.12 | 96 | 1016.4 |
| 20260509143042 | 50 | 301 | 0.0 | 3.5 | 0.05 | 0.10 | 0.10 | 96 | 1015.5 |
| 20260509141538 | 51 | 301 | 1.7 | 7.0 | 0.10 | 0.10 | 0.10 | 96 | 1015.3 |
| 20260509140014 | 51 | 301 | 2.6 | 9.6 | 0.10 | 0.10 | 0.10 | 96 | 1015.4 |
| 20260509134518 | 51 | 301 | 0.9 | 5.2 | 0.09 | 0.09 | 0.09 | 96 | 1016.0 |
| 20260509133054 | 51 | 301 | 0.0 | 5.2 | 0.05 | 0.05 | 0.05 | 94 | 1016.7 |
| 20260509131533 | 52 | 301 | 0.9 | 4.3 | 0.01 | 0.01 | 0.01 | 92 | 1017.2 |
| 20260509130031 | 52 | 301 | 0.9 | 6.1 | 0.00 | 0.00 | 0.00 | 91 | 1017.6 |
| 20260509124525 | 53 | 301 | 0.0 | 5.2 | 0.00 | 0.00 | 0.00 | 92 | 1017.1 |
| 20260509123016 | 53 | 301 | 0.9 | 6.1 | 0.00 | 0.00 | 0.00 | 92 | 1017.1 |
| 20260509121510 | 52 | 301 | 1.7 | 7.8 | 0.00 | 0.00 | 0.00 | 94 | 1016.6 |
| 20260509120041 | 52 | 301 | 0.9 | 4.3 | 0.00 | 0.00 | 0.00 | 96 | 1017.1 |
| 20260509114534 | 52 | 301 | 1.7 | 6.1 | 0.00 | 0.00 | 0.00 | 95 | 1017.6 |
| 20260509113019 | 53 | 301 | 0.9 | 4.3 | 0.00 | 0.00 | 0.00 | 95 | 1017.9 |
| 20260509111513 | 54 | 301 | 0.0 | 3.5 | 0.00 | 0.00 | 0.00 | 94 | 1018.0 |
| 20260509110059 | 54 | 301 | 0.9 | 7.0 | 0.00 | 0.00 | 0.00 | 94 | 1017.9 |
| 20260509104608 | 53 | 301 | 0.0 | 3.5 | 0.00 | 0.00 | 0.00 | 95 | 1017.9 |
| 20260509103111 | 53 | 301 | 1.7 | 3.5 | 0.00 | 0.00 | 0.00 | 94 | 1018.3 |
| 20260509103001 | 53 | 301 | 0.9 | 3.5 | 0.00 | 0.00 | 0.00 | 95 | 1018.4 |
| 20260509101556 | 53 | 301 | 0.9 | 4.3 | 0.00 | 0.00 | 0.00 | 95 | 1018.3 |
| 20260509100045 | 53 | 301 | 0.0 | 3.5 | 0.00 | 0.00 | 0.00 | 95 | 1018.3 |
| 20260509094542 | 53 | 301 | 0.9 | 3.5 | 0.00 | 0.00 | 0.00 | 96 | 1018.2 |
| 20260509093041 | 53 | 301 | 0.0 | 5.2 | 0.00 | 0.00 | 0.00 | 96 | 1018.0 |